createdAt,value
2024-03-06T00:01:05.940Z,4.03
2024-03-06T00:03:32.548Z,3.89
2024-03-06T00:05:59.086Z,3.92
2024-03-06T00:08:25.464Z,3.93
2024-03-06T00:10:51.860Z,3.88
2024-03-06T00:13:18.309Z,3.91
2024-03-06T00:15:44.865Z,3.87
2024-03-06T00:18:11.500Z,3.90
2024-03-06T00:20:38.769Z,3.88
2024-03-06T00:23:05.507Z,3.82
2024-03-06T00:25:31.943Z,3.86
2024-03-06T00:27:58.517Z,3.84
2024-03-06T00:30:25.011Z,3.80
2024-03-06T00:32:51.673Z,3.80
2024-03-06T00:35:18.150Z,3.79
2024-03-06T00:37:45.415Z,3.79
2024-03-06T00:40:12.911Z,3.80
2024-03-06T00:42:41.714Z,3.78
2024-03-06T00:45:08.462Z,3.71
2024-03-06T00:47:35.685Z,3.60
2024-03-06T00:50:02.374Z,3.57
2024-03-06T00:52:28.952Z,3.55
2024-03-06T00:54:55.524Z,3.62
2024-03-06T00:57:22.164Z,3.65
2024-03-06T00:59:48.866Z,3.57
2024-03-06T01:02:15.448Z,3.65
2024-03-06T01:04:42.156Z,3.74
2024-03-06T01:07:08.511Z,3.68
2024-03-06T01:09:34.911Z,3.69
2024-03-06T01:12:01.565Z,3.59
2024-03-06T01:14:27.916Z,3.59
2024-03-06T01:16:54.314Z,3.57
2024-03-06T01:19:20.856Z,3.60
2024-03-06T01:21:47.441Z,3.55
2024-03-06T01:24:13.892Z,3.56
2024-03-06T01:26:41.516Z,3.48
2024-03-06T01:29:07.830Z,3.48
2024-03-06T01:31:34.216Z,3.46
2024-03-06T01:34:00.542Z,3.49
2024-03-06T01:36:26.916Z,3.51
2024-03-06T01:38:53.355Z,3.53
2024-03-06T01:41:19.791Z,3.42
2024-03-06T01:43:46.337Z,3.46
2024-03-06T01:46:12.948Z,3.48
2024-03-06T01:48:40.180Z,3.48
2024-03-06T01:51:06.681Z,3.52
2024-03-06T01:53:34.908Z,3.46
2024-03-06T01:56:01.692Z,3.49
2024-03-06T01:58:29.100Z,3.54
2024-03-06T02:00:56.377Z,3.49
2024-03-06T02:03:23.441Z,3.55
2024-03-06T02:05:51.783Z,3.59
2024-03-06T02:08:19.071Z,3.58
2024-03-06T02:10:46.808Z,3.56
2024-03-06T02:13:14.838Z,3.45
2024-03-06T02:15:41.504Z,3.51
2024-03-06T02:18:10.121Z,3.48
2024-03-06T02:20:39.523Z,3.43
2024-03-06T02:23:05.922Z,3.43
2024-03-06T02:25:33.218Z,3.42
2024-03-06T02:28:00.070Z,3.42
2024-03-06T02:30:26.421Z,3.48
2024-03-06T02:32:52.864Z,3.46
2024-03-06T02:35:19.671Z,3.45
2024-03-06T02:37:46.372Z,3.48
2024-03-06T02:40:13.151Z,3.51
2024-03-06T02:42:43.018Z,3.48
2024-03-06T02:45:10.072Z,3.52
2024-03-06T02:47:36.563Z,3.42
2024-03-06T02:50:03.403Z,3.37
2024-03-06T02:52:29.897Z,3.47
2024-03-06T02:54:57.473Z,3.38
2024-03-06T02:57:24.151Z,3.44
2024-03-06T02:59:51.112Z,3.50
2024-03-06T03:02:17.664Z,3.36
2024-03-06T03:04:45.266Z,3.34
2024-03-06T03:07:11.875Z,3.41
2024-03-06T03:09:39.668Z,3.38
2024-03-06T03:12:06.885Z,3.41
2024-03-06T03:14:33.925Z,3.35
2024-03-06T03:17:01.614Z,3.41
2024-03-06T03:19:27.960Z,3.41
2024-03-06T03:21:54.422Z,3.42
2024-03-06T03:24:22.195Z,3.41
2024-03-06T03:26:48.552Z,3.48
2024-03-06T03:29:14.894Z,3.55
2024-03-06T03:31:41.343Z,3.65
2024-03-06T03:34:08.203Z,3.60
2024-03-06T03:36:34.582Z,3.57
2024-03-06T03:39:01.164Z,3.48
2024-03-06T03:41:27.761Z,3.57
2024-03-06T03:43:54.401Z,3.53
2024-03-06T03:46:21.019Z,3.50
2024-03-06T03:48:47.568Z,3.51
2024-03-06T03:51:15.146Z,3.47
2024-03-06T03:53:41.536Z,3.42
2024-03-06T03:56:08.775Z,3.43
2024-03-06T03:58:35.519Z,3.37
2024-03-06T04:01:01.907Z,3.35
2024-03-06T04:03:28.470Z,3.28
2024-03-06T04:05:55.006Z,3.19
2024-03-06T04:08:21.634Z,3.27
2024-03-06T04:10:48.300Z,3.29
2024-03-06T04:13:17.284Z,3.32
2024-03-06T04:15:43.714Z,3.27
2024-03-06T04:18:10.154Z,3.33
2024-03-06T04:20:36.781Z,3.30
2024-03-06T04:23:03.640Z,3.26
2024-03-06T04:25:30.260Z,3.26
2024-03-06T04:27:56.684Z,3.19
2024-03-06T04:30:23.242Z,3.21
2024-03-06T04:32:50.098Z,3.19
2024-03-06T04:35:17.024Z,3.26
2024-03-06T04:37:45.266Z,3.25
2024-03-06T04:40:12.432Z,3.13
2024-03-06T04:42:38.837Z,3.14
2024-03-06T04:45:12.085Z,3.17
2024-03-06T04:47:39.054Z,3.20
2024-03-06T04:50:12.997Z,3.14
2024-03-06T04:52:39.800Z,3.18
2024-03-06T04:55:07.588Z,3.07
2024-03-06T04:57:36.578Z,3.13
2024-03-06T05:00:07.063Z,3.09
2024-03-06T06:00:12.211Z,2.62
2024-03-06T06:02:39.093Z,2.66
2024-03-06T06:07:35.509Z,2.59
2024-03-06T06:10:02.126Z,2.59
2024-03-06T06:12:28.696Z,2.49
2024-03-06T06:14:55.040Z,2.45
2024-03-06T06:17:23.047Z,2.47
2024-03-06T06:19:51.429Z,2.43
2024-03-06T06:22:17.776Z,2.45
2024-03-06T06:24:46.784Z,2.48
2024-03-06T06:27:14.364Z,2.50
2024-03-06T06:29:40.731Z,2.49
2024-03-06T06:32:07.635Z,2.44
2024-03-06T06:34:34.193Z,2.40
2024-03-06T06:37:00.608Z,2.54
2024-03-06T06:39:29.116Z,2.65
2024-03-06T06:41:55.496Z,2.65
2024-03-06T06:44:21.892Z,2.55
2024-03-06T06:46:48.298Z,2.51
2024-03-06T06:49:14.756Z,2.56
2024-03-06T06:51:41.412Z,2.70
2024-03-06T06:54:07.933Z,2.72
2024-03-06T06:56:34.839Z,2.74
2024-03-06T06:59:01.495Z,2.81
2024-03-06T07:01:28.605Z,2.91
2024-03-06T07:03:55.316Z,3.02
2024-03-06T07:06:21.721Z,3.11
2024-03-06T07:08:49.391Z,3.08
2024-03-06T07:11:18.896Z,3.20
2024-03-06T07:13:45.851Z,3.27
2024-03-06T07:16:12.624Z,3.33
2024-03-06T07:18:39.049Z,3.35
2024-03-06T07:21:05.485Z,3.39
2024-03-06T07:23:31.976Z,3.36
2024-03-06T07:26:00.168Z,3.52
2024-03-06T07:28:26.579Z,3.56
2024-03-06T07:30:53.736Z,3.59
2024-03-06T07:33:22.700Z,3.62
2024-03-06T07:35:49.348Z,3.62
2024-03-06T07:38:16.187Z,3.72
2024-03-06T07:40:42.650Z,3.70
2024-03-06T07:43:08.959Z,3.79
2024-03-06T07:45:35.469Z,3.84
2024-03-06T07:48:04.368Z,3.99
2024-03-06T07:50:31.057Z,4.04
2024-03-06T07:52:57.433Z,4.11
2024-03-06T07:55:24.159Z,4.03
2024-03-06T07:57:50.794Z,3.95
2024-03-06T08:00:20.560Z,3.98
2024-03-06T08:02:53.753Z,4.06
2024-03-06T08:05:20.802Z,4.17
2024-03-06T08:07:47.550Z,4.03
2024-03-06T08:10:14.548Z,4.03
2024-03-06T08:12:42.725Z,4.01
2024-03-06T08:15:15.598Z,4.08
2024-03-06T08:17:44.222Z,4.16
2024-03-06T08:20:11.661Z,4.05
2024-03-06T08:22:42.553Z,4.03
2024-03-06T08:25:10.992Z,4.04
2024-03-06T08:27:38.746Z,4.11
2024-03-06T08:30:06.194Z,4.27
2024-03-06T08:32:36.684Z,4.41
2024-03-06T08:35:06.854Z,4.51
2024-03-06T08:37:34.658Z,4.64
2024-03-06T08:40:02.328Z,4.73
2024-03-06T08:42:29.453Z,4.92
2024-03-06T08:44:56.209Z,4.83
2024-03-06T08:47:22.616Z,4.80
2024-03-06T08:49:49.426Z,4.70
2024-03-06T08:52:15.835Z,4.68
2024-03-06T08:54:45.215Z,4.70
2024-03-06T08:57:12.625Z,4.75
2024-03-06T08:59:39.069Z,4.87
2024-03-06T09:02:16.730Z,4.87
2024-03-06T09:04:44.116Z,4.97
2024-03-06T09:07:11.436Z,5.10
2024-03-06T09:09:38.554Z,5.23
2024-03-06T09:12:11.484Z,5.18
2024-03-06T09:14:38.859Z,5.24
2024-03-06T09:17:07.196Z,5.10
2024-03-06T09:19:33.975Z,5.02
2024-03-06T09:22:00.554Z,5.19
2024-03-06T09:24:29.161Z,5.44
2024-03-06T09:26:55.692Z,5.45
2024-03-06T09:29:22.717Z,5.44
2024-03-06T09:31:49.836Z,5.44
2024-03-06T09:34:16.389Z,5.48
2024-03-06T09:36:46.685Z,5.45
2024-03-06T09:39:16.300Z,5.45
2024-03-06T09:41:42.818Z,5.61
2024-03-06T09:44:09.601Z,5.47
2024-03-06T09:46:37.716Z,5.66
2024-03-06T09:49:04.542Z,5.68
2024-03-06T09:51:31.674Z,5.79
2024-03-06T09:53:59.854Z,5.92
2024-03-06T09:56:26.561Z,5.97
2024-03-06T09:58:55.186Z,5.91
2024-03-06T10:01:24.759Z,5.70
2024-03-06T10:03:51.569Z,5.80
2024-03-06T10:06:18.046Z,5.82
2024-03-06T10:08:45.198Z,5.77
2024-03-06T10:11:12.555Z,5.89
2024-03-06T10:13:38.961Z,5.98
2024-03-06T10:16:09.872Z,6.08
2024-03-06T10:18:39.745Z,6.01
2024-03-06T10:21:06.830Z,6.15
2024-03-06T10:23:34.097Z,6.05
2024-03-06T10:26:00.665Z,5.77
2024-03-06T10:28:28.567Z,5.66
2024-03-06T10:31:05.533Z,5.75
2024-03-06T10:33:32.685Z,5.84
2024-03-06T10:36:02.014Z,5.97
2024-03-06T10:38:35.817Z,5.92
2024-03-06T10:41:03.930Z,5.86
2024-03-06T10:43:32.592Z,5.87
2024-03-06T10:46:03.016Z,5.78
2024-03-06T10:48:29.608Z,5.92
2024-03-06T10:50:58.554Z,5.99
2024-03-06T10:53:29.204Z,6.01
2024-03-06T10:55:58.842Z,6.12
2024-03-06T10:58:26.887Z,6.24
2024-03-06T11:00:54.121Z,6.27
2024-03-06T11:03:20.742Z,6.15
2024-03-06T11:05:48.162Z,6.23
2024-03-06T11:08:16.421Z,6.32
2024-03-06T11:10:44.223Z,6.45
2024-03-06T11:13:30.014Z,6.52
2024-03-06T11:15:59.177Z,6.48
2024-03-06T11:18:32.499Z,6.53
2024-03-06T11:21:05.403Z,6.63
2024-03-06T11:23:32.522Z,6.50
2024-03-06T11:26:04.564Z,6.59
2024-03-06T11:28:36.393Z,6.57
2024-03-06T11:31:12.702Z,6.67
2024-03-06T11:33:42.096Z,6.62
2024-03-06T11:36:21.736Z,6.72
2024-03-06T11:38:48.915Z,6.69
2024-03-06T11:41:15.408Z,6.51
2024-03-06T11:43:45.776Z,6.37
2024-03-06T11:46:12.373Z,6.46
2024-03-06T11:48:39.763Z,6.52
2024-03-06T11:51:06.835Z,6.65
2024-03-06T11:53:37.517Z,6.52
2024-03-06T11:56:08.617Z,6.64
2024-03-06T11:58:36.009Z,6.61
2024-03-06T12:01:02.782Z,6.77
2024-03-06T12:03:29.539Z,6.63
2024-03-06T12:05:56.193Z,6.54
2024-03-06T12:08:22.618Z,6.63
2024-03-06T12:10:49.236Z,6.75
2024-03-06T12:13:15.656Z,6.84
2024-03-06T12:15:45.930Z,6.67
2024-03-06T12:18:12.723Z,6.79
2024-03-06T12:20:47.372Z,6.76
2024-03-06T12:23:29.268Z,6.51
2024-03-06T12:26:10.123Z,6.58
2024-03-06T12:28:37.795Z,6.46
2024-03-06T12:31:05.467Z,6.59
2024-03-06T12:33:32.678Z,6.59
2024-03-06T12:36:07.499Z,6.60
2024-03-06T12:38:34.876Z,6.71
2024-03-06T12:41:01.467Z,6.82
2024-03-06T12:43:29.688Z,6.87
2024-03-06T12:45:57.140Z,6.90
2024-03-06T12:48:24.385Z,6.83
2024-03-06T12:50:55.756Z,6.93
2024-03-06T12:53:23.305Z,7.01
2024-03-06T12:55:49.911Z,6.68
2024-03-06T12:58:16.299Z,6.78
2024-03-06T13:00:42.889Z,6.74
2024-03-06T13:03:09.544Z,6.68
2024-03-06T13:05:36.013Z,6.71
2024-03-06T13:08:02.545Z,6.89
2024-03-06T13:10:29.710Z,6.63
2024-03-06T13:12:56.113Z,6.71
2024-03-06T13:15:23.139Z,6.83
2024-03-06T13:17:49.599Z,6.98
2024-03-06T13:20:16.077Z,6.92
2024-03-06T13:22:42.542Z,6.74
2024-03-06T13:25:09.482Z,6.68
2024-03-06T13:27:35.961Z,6.65
2024-03-06T13:30:05.744Z,6.75
2024-03-06T13:32:32.709Z,6.67
2024-03-06T13:34:59.227Z,6.75
2024-03-06T13:37:25.790Z,6.56
2024-03-06T13:39:53.779Z,6.55
2024-03-06T13:42:20.163Z,6.63
2024-03-06T13:44:46.785Z,6.36
2024-03-06T13:47:17.592Z,6.42
2024-03-06T13:49:44.235Z,6.62
2024-03-06T13:52:11.578Z,6.75
2024-03-06T13:54:42.884Z,6.55
2024-03-06T13:57:10.326Z,6.59
2024-03-06T13:59:36.898Z,6.59
2024-03-06T14:02:07.851Z,6.44
2024-03-06T14:04:35.074Z,6.58
2024-03-06T14:07:01.925Z,6.45
2024-03-06T14:09:28.580Z,6.32
2024-03-06T14:11:55.674Z,6.47
2024-03-06T14:14:22.479Z,6.71
2024-03-06T14:16:49.723Z,6.81
2024-03-06T14:19:16.256Z,6.65
2024-03-06T14:21:42.635Z,6.75
2024-03-06T14:24:10.192Z,6.87
2024-03-06T14:26:36.856Z,6.82
2024-03-06T14:29:04.286Z,6.86
2024-03-06T14:31:30.873Z,6.96
2024-03-06T14:34:02.573Z,7.08
2024-03-06T14:36:31.212Z,6.95
2024-03-06T14:38:57.576Z,6.96
2024-03-06T14:41:24.028Z,6.91
2024-03-06T14:43:50.455Z,6.93
2024-03-06T14:46:16.888Z,6.69
2024-03-06T14:48:43.443Z,6.68
2024-03-06T14:51:09.971Z,6.78
2024-03-06T14:53:36.434Z,6.82
2024-03-06T14:56:03.486Z,6.85
2024-03-06T14:58:29.944Z,6.77
2024-03-06T15:00:56.325Z,6.51
2024-03-06T15:03:22.658Z,6.46
2024-03-06T15:05:49.291Z,6.31
2024-03-06T15:08:17.041Z,6.22
2024-03-06T15:10:43.497Z,6.03
2024-03-06T15:13:14.491Z,5.96
2024-03-06T15:15:41.647Z,6.01
2024-03-06T15:18:10.564Z,6.11
2024-03-06T15:20:37.702Z,6.15
2024-03-06T15:23:05.966Z,6.03
2024-03-06T15:25:32.478Z,6.01
2024-03-06T15:27:59.597Z,6.03
2024-03-06T15:30:26.561Z,5.88
2024-03-06T15:32:53.099Z,5.98
2024-03-06T15:35:19.848Z,5.71
2024-03-06T15:37:46.498Z,5.66
2024-03-06T15:40:12.936Z,5.64
2024-03-06T15:42:39.517Z,5.54
2024-03-06T15:45:08.625Z,5.60
2024-03-06T15:47:35.592Z,5.68
2024-03-06T15:50:02.578Z,5.62
2024-03-06T15:52:29.162Z,5.54
2024-03-06T15:54:57.543Z,5.45
2024-03-06T15:57:24.327Z,5.28
2024-03-06T15:59:50.664Z,5.26
2024-03-06T16:02:17.148Z,5.07
2024-03-06T16:04:43.586Z,5.03
2024-03-06T16:07:10.943Z,4.90
2024-03-06T16:09:37.389Z,4.86
2024-03-06T16:12:04.447Z,4.88
2024-03-06T16:14:31.032Z,4.69
2024-03-06T16:16:57.832Z,4.67
2024-03-06T16:19:31.610Z,4.66
2024-03-06T16:22:03.594Z,4.64
2024-03-06T16:24:31.147Z,4.61
2024-03-06T16:26:57.880Z,4.48
2024-03-06T16:29:24.529Z,4.47
2024-03-06T16:31:51.342Z,4.51
2024-03-06T16:34:22.796Z,4.50
2024-03-06T16:36:49.735Z,4.35
2024-03-06T16:39:16.836Z,4.31
2024-03-06T16:41:44.030Z,4.28
2024-03-06T16:44:13.757Z,4.20
2024-03-06T16:46:40.143Z,4.18
2024-03-06T16:49:08.416Z,4.20
2024-03-06T16:51:34.987Z,4.02
2024-03-06T16:54:03.523Z,4.03
2024-03-06T16:56:31.014Z,3.93
2024-03-06T16:58:58.470Z,3.94
2024-03-06T17:01:25.244Z,3.83
2024-03-06T17:03:52.137Z,3.74
2024-03-06T17:06:18.743Z,3.79
2024-03-06T17:08:45.716Z,3.73
2024-03-06T17:11:13.001Z,3.74
2024-03-06T17:13:40.638Z,3.57
2024-03-06T17:16:08.802Z,3.57
2024-03-06T17:18:36.561Z,3.57
2024-03-06T17:21:09.003Z,3.53
2024-03-06T17:23:36.536Z,3.42
2024-03-06T17:26:03.752Z,3.42
2024-03-06T17:28:31.397Z,3.36
2024-03-06T17:30:57.895Z,3.36
2024-03-06T17:33:24.608Z,3.23
2024-03-06T17:35:51.090Z,3.25
2024-03-06T17:38:17.717Z,3.17
2024-03-06T17:40:45.197Z,3.18
2024-03-06T17:43:15.415Z,3.20
2024-03-06T17:45:42.264Z,3.17
2024-03-06T17:48:09.295Z,3.17
2024-03-06T17:50:37.930Z,3.17
2024-03-06T17:53:08.918Z,3.03
2024-03-06T17:55:35.356Z,3.04
2024-03-06T17:58:05.665Z,2.94
2024-03-06T18:00:32.834Z,3.03
2024-03-06T18:03:00.183Z,2.98
2024-03-06T18:05:26.721Z,2.74
2024-03-06T18:07:53.563Z,2.67
2024-03-06T18:10:20.452Z,2.49
2024-03-06T18:12:47.042Z,2.37
2024-03-06T18:15:13.547Z,2.47
2024-03-06T18:17:40.517Z,2.41
2024-03-06T18:20:08.540Z,2.37
2024-03-06T18:22:36.453Z,2.33
2024-03-06T18:25:05.615Z,2.34
2024-03-06T18:27:32.935Z,2.33
2024-03-06T18:29:59.925Z,2.28
2024-03-06T18:32:26.920Z,2.31
2024-03-06T18:34:58.645Z,2.15
2024-03-06T18:37:25.489Z,2.21
2024-03-06T18:39:52.559Z,2.18
2024-03-06T18:42:21.629Z,2.10
2024-03-06T18:44:49.778Z,2.05
2024-03-06T18:47:16.736Z,2.02
2024-03-06T18:49:43.340Z,2.03
2024-03-06T18:52:09.862Z,1.94
2024-03-06T18:54:40.488Z,1.99
2024-03-06T18:57:07.521Z,2.06
2024-03-06T18:59:34.259Z,1.99
2024-03-06T19:02:01.140Z,2.00
2024-03-06T19:04:27.701Z,2.05
2024-03-06T19:06:54.703Z,2.04
2024-03-06T19:09:21.104Z,2.04
2024-03-06T19:11:48.828Z,2.02
2024-03-06T19:14:15.722Z,1.98
2024-03-06T19:16:42.388Z,1.99
2024-03-06T19:19:08.964Z,2.08
2024-03-06T19:21:35.608Z,1.98
2024-03-06T19:24:01.944Z,1.91
2024-03-06T19:26:28.678Z,1.92
2024-03-06T19:28:55.149Z,1.88
2024-03-06T19:31:21.603Z,1.88
2024-03-06T19:33:48.071Z,1.81
2024-03-06T19:36:14.476Z,1.79
2024-03-06T19:38:41.068Z,1.79
2024-03-06T19:41:07.640Z,1.65
2024-03-06T19:43:40.228Z,1.60
2024-03-06T19:46:07.317Z,1.58
2024-03-06T19:48:34.019Z,1.59
2024-03-06T19:51:01.027Z,1.60
2024-03-06T19:53:27.490Z,1.63
2024-03-06T19:55:54.137Z,1.55
2024-03-06T19:58:20.516Z,1.44
2024-03-06T20:00:47.042Z,1.44
2024-03-06T20:03:13.654Z,1.44
2024-03-06T20:05:40.336Z,1.44
2024-03-06T20:08:08.619Z,1.31
2024-03-06T20:10:35.158Z,1.25
2024-03-06T20:13:02.999Z,1.21
2024-03-06T20:15:35.434Z,1.31
2024-03-06T20:18:06.507Z,1.35
2024-03-06T20:20:33.333Z,1.49
2024-03-06T20:23:01.189Z,1.63
2024-03-06T20:25:27.899Z,1.66
2024-03-06T20:27:54.541Z,1.73
2024-03-06T20:30:22.643Z,1.69
2024-03-06T20:32:49.206Z,1.68
2024-03-06T20:35:21.533Z,1.75
2024-03-06T20:37:48.912Z,1.69
2024-03-06T20:40:15.604Z,1.76
2024-03-06T20:42:42.295Z,1.69
2024-03-06T20:45:11.703Z,1.72
2024-03-06T20:47:40.526Z,1.68
2024-03-06T20:50:08.069Z,1.71
2024-03-06T20:52:34.522Z,1.65
2024-03-06T20:55:01.560Z,1.60
2024-03-06T20:57:28.637Z,1.58
2024-03-06T20:59:55.451Z,1.54
2024-03-06T21:02:22.225Z,1.52
2024-03-06T21:04:48.815Z,1.66
2024-03-06T21:07:16.064Z,1.71
2024-03-06T21:09:42.481Z,1.73
2024-03-06T21:12:11.202Z,1.72
2024-03-06T21:14:38.862Z,1.77
2024-03-06T21:17:07.536Z,1.92
2024-03-06T21:19:34.414Z,2.06
2024-03-06T21:22:00.807Z,2.10
2024-03-06T21:24:27.804Z,2.13
2024-03-06T21:26:54.235Z,2.20
2024-03-06T21:29:20.686Z,2.34
2024-03-06T21:31:47.305Z,2.40
2024-03-06T21:34:14.428Z,2.45
2024-03-06T21:36:41.050Z,2.51
2024-03-06T21:39:10.553Z,2.61
2024-03-06T21:41:40.233Z,2.61
2024-03-06T21:44:06.960Z,2.65
2024-03-06T21:46:33.528Z,2.74
2024-03-06T21:49:00.165Z,2.81
2024-03-06T21:51:26.545Z,2.77
2024-03-06T21:53:53.044Z,2.91
2024-03-06T21:56:20.076Z,2.93
2024-03-06T21:58:47.262Z,2.97
2024-03-06T22:01:13.751Z,3.03
2024-03-06T22:03:40.254Z,2.93
2024-03-06T22:06:06.872Z,2.99
2024-03-06T22:08:38.499Z,3.08
2024-03-06T22:11:06.151Z,3.13
2024-03-06T22:13:35.381Z,3.09
2024-03-06T22:16:02.084Z,3.07
2024-03-06T22:18:28.584Z,3.04
2024-03-06T22:20:55.112Z,3.05
2024-03-06T22:23:21.561Z,3.12
2024-03-06T22:25:48.125Z,3.08
2024-03-06T22:28:14.541Z,3.13
2024-03-06T22:30:43.746Z,3.26
2024-03-06T22:33:13.540Z,3.38
2024-03-06T22:35:43.086Z,3.42
2024-03-06T22:38:10.047Z,3.46
2024-03-06T22:40:37.167Z,3.50
2024-03-06T22:43:06.677Z,3.55
2024-03-06T22:45:33.360Z,3.60
2024-03-06T22:48:00.032Z,3.64
2024-03-06T22:50:26.921Z,3.62
2024-03-06T22:52:53.767Z,3.56
2024-03-06T22:55:20.087Z,3.56
2024-03-06T22:57:46.474Z,3.39
2024-03-06T23:00:29.630Z,3.39
2024-03-06T23:02:59.056Z,3.53
2024-03-06T23:05:26.013Z,3.71
2024-03-06T23:07:52.785Z,3.72
2024-03-06T23:10:20.877Z,3.74
2024-03-06T23:12:48.126Z,3.80
2024-03-06T23:15:16.029Z,3.83
2024-03-06T23:17:48.189Z,3.94
2024-03-06T23:20:17.543Z,3.83
2024-03-06T23:22:45.173Z,3.73
2024-03-06T23:25:14.900Z,3.77
2024-03-06T23:27:42.743Z,3.76
2024-03-06T23:30:13.951Z,3.88
2024-03-06T23:32:42.001Z,3.79
2024-03-06T23:35:12.109Z,3.80
2024-03-06T23:37:38.529Z,3.84
2024-03-06T23:40:10.458Z,3.93
2024-03-06T23:42:41.214Z,3.87
2024-03-06T23:45:11.431Z,3.71
2024-03-06T23:47:42.844Z,3.76
2024-03-06T23:50:11.357Z,3.79
2024-03-06T23:52:41.025Z,3.90
2024-03-06T23:55:08.089Z,3.96
2024-03-06T23:57:37.418Z,4.13
